sensor_id;sensor_type;location;lat;lon;timestamp;P1;durP1;ratioP1;P2;durP2;ratioP2
8068;SDS011;4077;43.702;24.896;2023-03-23T00:02:22;1999.90;;;999.90;;
8068;SDS011;4077;43.702;24.896;2023-03-23T00:04:51;1999.90;;;999.90;;
8068;SDS011;4077;43.702;24.896;2023-03-23T00:07:18;1999.90;;;999.90;;
8068;SDS011;4077;43.702;24.896;2023-03-23T00:09:49;1999.90;;;999.90;;
8068;SDS011;4077;43.702;24.896;2023-03-23T00:12:26;1999.90;;;999.90;;
8068;SDS011;4077;43.702;24.896;2023-03-23T00:15:02;1999.90;;;999.90;;
8068;SDS011;4077;43.702;24.896;2023-03-23T00:17:30;1999.90;;;999.90;;
8068;SDS011;4077;43.702;24.896;2023-03-23T00:19:58;1999.90;;;999.90;;
8068;SDS011;4077;43.702;24.896;2023-03-23T00:22:26;705.07;;;370.00;;
8068;SDS011;4077;43.702;24.896;2023-03-23T00:24:53;1999.90;;;999.90;;
8068;SDS011;4077;43.702;24.896;2023-03-23T00:27:19;1999.90;;;999.90;;
8068;SDS011;4077;43.702;24.896;2023-03-23T00:29:47;1999.90;;;999.90;;
8068;SDS011;4077;43.702;24.896;2023-03-23T00:32:17;1999.90;;;999.90;;
8068;SDS011;4077;43.702;24.896;2023-03-23T00:34:45;703.40;;;368.40;;
8068;SDS011;4077;43.702;24.896;2023-03-23T00:37:13;703.13;;;368.13;;
8068;SDS011;4077;43.702;24.896;2023-03-23T00:39:41;702.30;;;367.37;;
8068;SDS011;4077;43.702;24.896;2023-03-23T00:42:09;702.00;;;367.07;;
8068;SDS011;4077;43.702;24.896;2023-03-23T00:44:35;701.93;;;367.00;;
8068;SDS011;4077;43.702;24.896;2023-03-23T00:47:01;708.20;;;373.00;;
8068;SDS011;4077;43.702;24.896;2023-03-23T00:49:28;701.10;;;366.23;;
8068;SDS011;4077;43.702;24.896;2023-03-23T00:51:54;700.63;;;365.77;;
8068;SDS011;4077;43.702;24.896;2023-03-23T00:54:21;1999.90;;;999.90;;
8068;SDS011;4077;43.702;24.896;2023-03-23T00:56:47;1999.90;;;999.90;;
8068;SDS011;4077;43.702;24.896;2023-03-23T00:59:13;1999.90;;;999.90;;
8068;SDS011;4077;43.702;24.896;2023-03-23T01:01:39;1999.90;;;999.90;;
8068;SDS011;4077;43.702;24.896;2023-03-23T01:04:04;1999.90;;;999.90;;
8068;SDS011;4077;43.702;24.896;2023-03-23T01:06:32;1999.90;;;999.90;;
8068;SDS011;4077;43.702;24.896;2023-03-23T01:09:04;1999.90;;;999.90;;
8068;SDS011;4077;43.702;24.896;2023-03-23T01:11:34;1999.90;;;999.90;;
8068;SDS011;4077;43.702;24.896;2023-03-23T01:13:59;1999.90;;;999.90;;
8068;SDS011;4077;43.702;24.896;2023-03-23T01:16:26;1999.90;;;999.90;;
8068;SDS011;4077;43.702;24.896;2023-03-23T01:18:52;1999.90;;;999.90;;
8068;SDS011;4077;43.702;24.896;2023-03-23T01:21:18;1999.90;;;999.90;;
8068;SDS011;4077;43.702;24.896;2023-03-23T01:23:45;1999.90;;;999.90;;
8068;SDS011;4077;43.702;24.896;2023-03-23T01:26:12;1999.90;;;999.90;;
8068;SDS011;4077;43.702;24.896;2023-03-23T01:28:40;1999.90;;;999.90;;
8068;SDS011;4077;43.702;24.896;2023-03-23T01:31:07;1999.90;;;999.90;;
8068;SDS011;4077;43.702;24.896;2023-03-23T01:33:37;1999.90;;;999.90;;
8068;SDS011;4077;43.702;24.896;2023-03-23T01:36:03;1999.90;;;999.90;;
8068;SDS011;4077;43.702;24.896;2023-03-23T01:38:31;1999.90;;;999.90;;
8068;SDS011;4077;43.702;24.896;2023-03-23T01:40:56;1999.90;;;999.90;;
8068;SDS011;4077;43.702;24.896;2023-03-23T01:43:22;1999.90;;;999.90;;
8068;SDS011;4077;43.702;24.896;2023-03-23T01:45:47;1999.90;;;999.90;;
8068;SDS011;4077;43.702;24.896;2023-03-23T01:48:46;1999.90;;;999.90;;
8068;SDS011;4077;43.702;24.896;2023-03-23T01:51:09;1999.90;;;999.90;;
8068;SDS011;4077;43.702;24.896;2023-03-23T01:54:02;1999.90;;;999.90;;
8068;SDS011;4077;43.702;24.896;2023-03-23T01:56:36;1999.90;;;999.90;;
8068;SDS011;4077;43.702;24.896;2023-03-23T01:59:06;1999.90;;;999.90;;
8068;SDS011;4077;43.702;24.896;2023-03-23T02:01:33;1999.90;;;999.90;;
8068;SDS011;4077;43.702;24.896;2023-03-23T02:04:03;1999.90;;;999.90;;
8068;SDS011;4077;43.702;24.896;2023-03-23T02:06:29;1999.90;;;999.90;;
8068;SDS011;4077;43.702;24.896;2023-03-23T02:08:55;1999.90;;;999.90;;
8068;SDS011;4077;43.702;24.896;2023-03-23T02:11:21;1999.90;;;999.90;;
8068;SDS011;4077;43.702;24.896;2023-03-23T02:13:47;1999.90;;;999.90;;
8068;SDS011;4077;43.702;24.896;2023-03-23T02:27:13;1999.90;;;999.90;;
8068;SDS011;4077;43.702;24.896;2023-03-23T02:32:41;1999.90;;;999.90;;
8068;SDS011;4077;43.702;24.896;2023-03-23T02:35:18;1999.90;;;999.90;;
8068;SDS011;4077;43.702;24.896;2023-03-23T02:37:49;1999.90;;;999.90;;
8068;SDS011;4077;43.702;24.896;2023-03-23T02:40:35;1999.90;;;999.90;;
8068;SDS011;4077;43.702;24.896;2023-03-23T02:43:05;1999.90;;;999.90;;
8068;SDS011;4077;43.702;24.896;2023-03-23T02:45:34;1999.90;;;999.90;;
8068;SDS011;4077;43.702;24.896;2023-03-23T02:48:01;1999.90;;;999.90;;
8068;SDS011;4077;43.702;24.896;2023-03-23T02:50:29;1999.90;;;999.90;;
8068;SDS011;4077;43.702;24.896;2023-03-23T02:52:57;1999.90;;;999.90;;
8068;SDS011;4077;43.702;24.896;2023-03-23T02:55:24;1999.90;;;999.90;;
8068;SDS011;4077;43.702;24.896;2023-03-23T02:57:51;1999.90;;;999.90;;
8068;SDS011;4077;43.702;24.896;2023-03-23T03:00:18;1999.90;;;999.90;;
8068;SDS011;4077;43.702;24.896;2023-03-23T03:02:54;1999.90;;;999.90;;
8068;SDS011;4077;43.702;24.896;2023-03-23T03:05:26;1999.90;;;999.90;;
8068;SDS011;4077;43.702;24.896;2023-03-23T03:10:50;1999.90;;;999.90;;
8068;SDS011;4077;43.702;24.896;2023-03-23T03:16:04;1999.90;;;999.90;;
8068;SDS011;4077;43.702;24.896;2023-03-23T03:18:39;1999.90;;;999.90;;
8068;SDS011;4077;43.702;24.896;2023-03-23T03:21:13;1999.90;;;999.90;;
8068;SDS011;4077;43.702;24.896;2023-03-23T03:23:43;1999.90;;;999.90;;
8068;SDS011;4077;43.702;24.896;2023-03-23T03:26:11;1999.90;;;999.90;;
8068;SDS011;4077;43.702;24.896;2023-03-23T03:28:41;1999.90;;;999.90;;
8068;SDS011;4077;43.702;24.896;2023-03-23T03:31:13;1999.90;;;999.90;;
8068;SDS011;4077;43.702;24.896;2023-03-23T03:33:42;1999.90;;;999.90;;
8068;SDS011;4077;43.702;24.896;2023-03-23T03:36:13;1999.90;;;999.90;;
8068;SDS011;4077;43.702;24.896;2023-03-23T03:38:44;1999.90;;;999.90;;
8068;SDS011;4077;43.702;24.896;2023-03-23T03:41:12;1999.90;;;999.90;;
8068;SDS011;4077;43.702;24.896;2023-03-23T03:43:38;1999.90;;;999.90;;
8068;SDS011;4077;43.702;24.896;2023-03-23T03:46:03;1999.90;;;999.90;;
8068;SDS011;4077;43.702;24.896;2023-03-23T03:48:29;1999.90;;;999.90;;
8068;SDS011;4077;43.702;24.896;2023-03-23T03:50:54;1999.90;;;999.90;;
8068;SDS011;4077;43.702;24.896;2023-03-23T03:53:22;1999.90;;;999.90;;
8068;SDS011;4077;43.702;24.896;2023-03-23T03:58:43;1999.90;;;999.90;;
8068;SDS011;4077;43.702;24.896;2023-03-23T04:01:09;1999.90;;;999.90;;
8068;SDS011;4077;43.702;24.896;2023-03-23T04:03:36;1999.90;;;999.90;;
8068;SDS011;4077;43.702;24.896;2023-03-23T04:06:02;1999.90;;;999.90;;
8068;SDS011;4077;43.702;24.896;2023-03-23T04:08:27;1999.90;;;999.90;;
8068;SDS011;4077;43.702;24.896;2023-03-23T04:10:53;1999.90;;;999.90;;
8068;SDS011;4077;43.702;24.896;2023-03-23T04:13:19;1999.90;;;999.90;;
8068;SDS011;4077;43.702;24.896;2023-03-23T04:15:45;1999.90;;;999.90;;
8068;SDS011;4077;43.702;24.896;2023-03-23T04:18:12;1999.90;;;999.90;;
8068;SDS011;4077;43.702;24.896;2023-03-23T04:20:39;1999.90;;;999.90;;
8068;SDS011;4077;43.702;24.896;2023-03-23T04:23:06;1999.90;;;999.90;;
8068;SDS011;4077;43.702;24.896;2023-03-23T04:25:32;1999.90;;;999.90;;
8068;SDS011;4077;43.702;24.896;2023-03-23T04:27:58;1999.90;;;999.90;;
8068;SDS011;4077;43.702;24.896;2023-03-23T04:30:26;1999.90;;;999.90;;
8068;SDS011;4077;43.702;24.896;2023-03-23T04:32:53;1999.90;;;999.90;;
8068;SDS011;4077;43.702;24.896;2023-03-23T04:35:25;1999.90;;;999.90;;
8068;SDS011;4077;43.702;24.896;2023-03-23T04:37:51;1999.90;;;999.90;;
8068;SDS011;4077;43.702;24.896;2023-03-23T04:40:17;1999.90;;;999.90;;
8068;SDS011;4077;43.702;24.896;2023-03-23T04:42:44;1999.90;;;999.90;;
8068;SDS011;4077;43.702;24.896;2023-03-23T04:45:11;1999.90;;;999.90;;
8068;SDS011;4077;43.702;24.896;2023-03-23T04:47:38;1999.90;;;999.90;;
8068;SDS011;4077;43.702;24.896;2023-03-23T04:50:09;1999.90;;;999.90;;
8068;SDS011;4077;43.702;24.896;2023-03-23T04:52:37;1999.90;;;999.90;;
8068;SDS011;4077;43.702;24.896;2023-03-23T04:55:05;1999.90;;;999.90;;
8068;SDS011;4077;43.702;24.896;2023-03-23T04:57:33;1999.90;;;999.90;;
8068;SDS011;4077;43.702;24.896;2023-03-23T05:00:00;1999.90;;;999.90;;
8068;SDS011;4077;43.702;24.896;2023-03-23T05:02:30;1999.90;;;999.90;;
8068;SDS011;4077;43.702;24.896;2023-03-23T05:04:56;1999.90;;;999.90;;
8068;SDS011;4077;43.702;24.896;2023-03-23T05:07:23;1999.90;;;999.90;;
8068;SDS011;4077;43.702;24.896;2023-03-23T05:09:49;1999.90;;;999.90;;
8068;SDS011;4077;43.702;24.896;2023-03-23T05:12:14;1999.90;;;999.90;;
8068;SDS011;4077;43.702;24.896;2023-03-23T05:14:40;1999.90;;;999.90;;
8068;SDS011;4077;43.702;24.896;2023-03-23T05:17:06;1999.90;;;999.90;;
8068;SDS011;4077;43.702;24.896;2023-03-23T05:19:32;1999.90;;;999.90;;
8068;SDS011;4077;43.702;24.896;2023-03-23T05:21:58;1999.90;;;999.90;;
8068;SDS011;4077;43.702;24.896;2023-03-23T05:24:28;1999.90;;;999.90;;
8068;SDS011;4077;43.702;24.896;2023-03-23T05:26:57;1999.90;;;999.90;;
8068;SDS011;4077;43.702;24.896;2023-03-23T05:29:24;1999.90;;;999.90;;
8068;SDS011;4077;43.702;24.896;2023-03-23T05:31:50;1999.90;;;999.90;;
8068;SDS011;4077;43.702;24.896;2023-03-23T05:34:18;1999.90;;;999.90;;
8068;SDS011;4077;43.702;24.896;2023-03-23T05:36:44;1999.90;;;999.90;;
8068;SDS011;4077;43.702;24.896;2023-03-23T05:39:12;1999.90;;;999.90;;
8068;SDS011;4077;43.702;24.896;2023-03-23T05:41:41;1999.90;;;999.90;;
8068;SDS011;4077;43.702;24.896;2023-03-23T05:44:06;1999.90;;;999.90;;
8068;SDS011;4077;43.702;24.896;2023-03-23T05:46:32;1999.90;;;999.90;;
8068;SDS011;4077;43.702;24.896;2023-03-23T05:48:58;1999.90;;;999.90;;
8068;SDS011;4077;43.702;24.896;2023-03-23T05:51:24;1999.90;;;999.90;;
8068;SDS011;4077;43.702;24.896;2023-03-23T05:53:51;1999.90;;;999.90;;
8068;SDS011;4077;43.702;24.896;2023-03-23T05:56:17;1999.90;;;999.90;;
8068;SDS011;4077;43.702;24.896;2023-03-23T05:58:43;1999.90;;;999.90;;
8068;SDS011;4077;43.702;24.896;2023-03-23T06:01:08;1999.90;;;999.90;;
8068;SDS011;4077;43.702;24.896;2023-03-23T06:03:34;1999.90;;;999.90;;
8068;SDS011;4077;43.702;24.896;2023-03-23T06:06:02;1999.90;;;999.90;;
8068;SDS011;4077;43.702;24.896;2023-03-23T06:08:28;1999.90;;;999.90;;
8068;SDS011;4077;43.702;24.896;2023-03-23T06:10:54;1999.90;;;999.90;;
8068;SDS011;4077;43.702;24.896;2023-03-23T06:13:20;1999.90;;;999.90;;
8068;SDS011;4077;43.702;24.896;2023-03-23T06:15:46;1999.90;;;999.90;;
8068;SDS011;4077;43.702;24.896;2023-03-23T06:18:12;1999.90;;;999.90;;
8068;SDS011;4077;43.702;24.896;2023-03-23T06:20:38;1999.90;;;999.90;;
8068;SDS011;4077;43.702;24.896;2023-03-23T06:23:04;1999.90;;;999.90;;
8068;SDS011;4077;43.702;24.896;2023-03-23T06:25:30;1999.90;;;999.90;;
8068;SDS011;4077;43.702;24.896;2023-03-23T06:27:56;1999.90;;;999.90;;
8068;SDS011;4077;43.702;24.896;2023-03-23T06:30:22;1999.90;;;999.90;;
8068;SDS011;4077;43.702;24.896;2023-03-23T06:32:48;1999.90;;;999.90;;
8068;SDS011;4077;43.702;24.896;2023-03-23T06:35:14;1999.90;;;999.90;;
8068;SDS011;4077;43.702;24.896;2023-03-23T06:37:40;1999.90;;;999.90;;
8068;SDS011;4077;43.702;24.896;2023-03-23T06:40:06;1999.90;;;999.90;;
8068;SDS011;4077;43.702;24.896;2023-03-23T06:42:32;1999.90;;;999.90;;
8068;SDS011;4077;43.702;24.896;2023-03-23T06:44:58;1999.90;;;999.90;;
8068;SDS011;4077;43.702;24.896;2023-03-23T06:47:25;1999.90;;;999.90;;
8068;SDS011;4077;43.702;24.896;2023-03-23T06:49:57;1999.90;;;999.90;;
8068;SDS011;4077;43.702;24.896;2023-03-23T06:52:23;1999.90;;;999.90;;
8068;SDS011;4077;43.702;24.896;2023-03-23T06:54:50;1999.90;;;999.90;;
8068;SDS011;4077;43.702;24.896;2023-03-23T06:57:16;1999.90;;;999.90;;
8068;SDS011;4077;43.702;24.896;2023-03-23T06:59:43;1999.90;;;999.90;;
8068;SDS011;4077;43.702;24.896;2023-03-23T07:02:10;1999.90;;;999.90;;
8068;SDS011;4077;43.702;24.896;2023-03-23T07:04:36;1999.90;;;999.90;;
8068;SDS011;4077;43.702;24.896;2023-03-23T07:07:03;1999.90;;;999.90;;
8068;SDS011;4077;43.702;24.896;2023-03-23T07:09:29;1999.90;;;999.90;;
8068;SDS011;4077;43.702;24.896;2023-03-23T07:11:55;1999.90;;;999.90;;
8068;SDS011;4077;43.702;24.896;2023-03-23T07:14:21;1999.90;;;999.90;;
8068;SDS011;4077;43.702;24.896;2023-03-23T07:16:47;1999.90;;;999.90;;
8068;SDS011;4077;43.702;24.896;2023-03-23T07:19:12;1999.90;;;999.90;;
8068;SDS011;4077;43.702;24.896;2023-03-23T07:21:38;1999.90;;;999.90;;
8068;SDS011;4077;43.702;24.896;2023-03-23T07:24:04;1999.90;;;999.90;;
8068;SDS011;4077;43.702;24.896;2023-03-23T07:26:29;1999.90;;;999.90;;
8068;SDS011;4077;43.702;24.896;2023-03-23T07:28:55;1999.90;;;999.90;;
8068;SDS011;4077;43.702;24.896;2023-03-23T07:31:20;1999.90;;;999.90;;
8068;SDS011;4077;43.702;24.896;2023-03-23T07:33:45;1999.90;;;999.90;;
8068;SDS011;4077;43.702;24.896;2023-03-23T07:36:11;1999.90;;;999.90;;
8068;SDS011;4077;43.702;24.896;2023-03-23T07:38:37;1999.90;;;999.90;;
8068;SDS011;4077;43.702;24.896;2023-03-23T07:41:03;1999.90;;;999.90;;
8068;SDS011;4077;43.702;24.896;2023-03-23T07:43:30;1999.90;;;999.90;;
8068;SDS011;4077;43.702;24.896;2023-03-23T07:45:55;1999.90;;;999.90;;
8068;SDS011;4077;43.702;24.896;2023-03-23T07:48:21;1999.90;;;999.90;;
8068;SDS011;4077;43.702;24.896;2023-03-23T07:50:47;1999.90;;;999.90;;
8068;SDS011;4077;43.702;24.896;2023-03-23T08:06:26;1999.90;;;999.90;;
8068;SDS011;4077;43.702;24.896;2023-03-23T08:08:52;1999.90;;;999.90;;
8068;SDS011;4077;43.702;24.896;2023-03-23T08:11:19;1999.90;;;999.90;;
8068;SDS011;4077;43.702;24.896;2023-03-23T08:13:46;1999.90;;;999.90;;
8068;SDS011;4077;43.702;24.896;2023-03-23T08:16:12;1999.90;;;999.90;;
8068;SDS011;4077;43.702;24.896;2023-03-23T08:18:38;1999.90;;;999.90;;
8068;SDS011;4077;43.702;24.896;2023-03-23T08:21:05;1999.90;;;999.90;;
8068;SDS011;4077;43.702;24.896;2023-03-23T08:23:33;1999.90;;;999.90;;
8068;SDS011;4077;43.702;24.896;2023-03-23T08:25:59;1999.90;;;999.90;;
8068;SDS011;4077;43.702;24.896;2023-03-23T08:28:25;1999.90;;;999.90;;
8068;SDS011;4077;43.702;24.896;2023-03-23T08:30:51;1999.90;;;999.90;;
8068;SDS011;4077;43.702;24.896;2023-03-23T08:33:16;1999.90;;;999.90;;
8068;SDS011;4077;43.702;24.896;2023-03-23T08:35:42;1999.90;;;999.90;;
8068;SDS011;4077;43.702;24.896;2023-03-23T08:38:09;1999.90;;;999.90;;
8068;SDS011;4077;43.702;24.896;2023-03-23T08:40:36;1999.90;;;999.90;;
8068;SDS011;4077;43.702;24.896;2023-03-23T08:43:02;1999.90;;;999.90;;
8068;SDS011;4077;43.702;24.896;2023-03-23T08:45:27;1999.90;;;999.90;;
8068;SDS011;4077;43.702;24.896;2023-03-23T08:47:53;1999.90;;;999.90;;
8068;SDS011;4077;43.702;24.896;2023-03-23T08:50:21;1999.90;;;999.90;;
8068;SDS011;4077;43.702;24.896;2023-03-23T08:52:49;1999.90;;;999.90;;
8068;SDS011;4077;43.702;24.896;2023-03-23T08:55:15;1999.90;;;999.90;;
8068;SDS011;4077;43.702;24.896;2023-03-23T08:57:42;1999.90;;;999.90;;
8068;SDS011;4077;43.702;24.896;2023-03-23T09:00:10;1999.90;;;999.90;;
8068;SDS011;4077;43.702;24.896;2023-03-23T09:02:41;1999.90;;;999.90;;
8068;SDS011;4077;43.702;24.896;2023-03-23T09:05:08;1999.90;;;999.90;;
8068;SDS011;4077;43.702;24.896;2023-03-23T09:07:36;1999.90;;;999.90;;
8068;SDS011;4077;43.702;24.896;2023-03-23T09:10:05;1999.90;;;999.90;;
8068;SDS011;4077;43.702;24.896;2023-03-23T09:12:32;1999.90;;;999.90;;
8068;SDS011;4077;43.702;24.896;2023-03-23T09:14:57;1999.90;;;999.90;;
8068;SDS011;4077;43.702;24.896;2023-03-23T09:17:23;1999.90;;;999.90;;
8068;SDS011;4077;43.702;24.896;2023-03-23T09:19:48;1999.90;;;999.90;;
8068;SDS011;4077;43.702;24.896;2023-03-23T09:22:14;1999.90;;;999.90;;
8068;SDS011;4077;43.702;24.896;2023-03-23T09:24:44;1999.90;;;999.90;;
8068;SDS011;4077;43.702;24.896;2023-03-23T09:27:10;1999.90;;;999.90;;
8068;SDS011;4077;43.702;24.896;2023-03-23T09:29:35;1999.90;;;999.90;;
8068;SDS011;4077;43.702;24.896;2023-03-23T09:32:01;1999.90;;;999.90;;
8068;SDS011;4077;43.702;24.896;2023-03-23T09:34:27;1999.90;;;999.90;;
8068;SDS011;4077;43.702;24.896;2023-03-23T09:36:54;1999.90;;;999.90;;
8068;SDS011;4077;43.702;24.896;2023-03-23T09:39:19;1999.90;;;999.90;;
8068;SDS011;4077;43.702;24.896;2023-03-23T09:46:58;1999.90;;;999.90;;
8068;SDS011;4077;43.702;24.896;2023-03-23T09:49:50;1999.90;;;999.90;;
8068;SDS011;4077;43.702;24.896;2023-03-23T09:52:21;1999.90;;;999.90;;
8068;SDS011;4077;43.702;24.896;2023-03-23T09:54:48;1999.90;;;999.90;;
8068;SDS011;4077;43.702;24.896;2023-03-23T10:00:10;1999.90;;;999.90;;
8068;SDS011;4077;43.702;24.896;2023-03-23T10:02:45;1999.90;;;999.90;;
8068;SDS011;4077;43.702;24.896;2023-03-23T10:05:35;1999.90;;;999.90;;
8068;SDS011;4077;43.702;24.896;2023-03-23T10:08:10;1999.90;;;999.90;;
8068;SDS011;4077;43.702;24.896;2023-03-23T10:10:45;1999.90;;;999.90;;
8068;SDS011;4077;43.702;24.896;2023-03-23T10:13:24;1999.90;;;999.90;;
8068;SDS011;4077;43.702;24.896;2023-03-23T10:19:03;1999.90;;;999.90;;
8068;SDS011;4077;43.702;24.896;2023-03-23T10:21:32;1999.90;;;999.90;;
8068;SDS011;4077;43.702;24.896;2023-03-23T10:24:03;1999.90;;;999.90;;
8068;SDS011;4077;43.702;24.896;2023-03-23T10:29:32;1999.90;;;999.90;;
8068;SDS011;4077;43.702;24.896;2023-03-23T10:37:18;1999.90;;;999.90;;
8068;SDS011;4077;43.702;24.896;2023-03-23T10:39:56;1999.90;;;999.90;;
8068;SDS011;4077;43.702;24.896;2023-03-23T10:42:27;1999.90;;;999.90;;
8068;SDS011;4077;43.702;24.896;2023-03-23T10:44:55;1999.90;;;999.90;;
8068;SDS011;4077;43.702;24.896;2023-03-23T10:47:23;1999.90;;;999.90;;
8068;SDS011;4077;43.702;24.896;2023-03-23T10:50:02;1999.90;;;999.90;;
8068;SDS011;4077;43.702;24.896;2023-03-23T10:52:34;1999.90;;;999.90;;
8068;SDS011;4077;43.702;24.896;2023-03-23T10:57:29;1999.90;;;999.90;;
8068;SDS011;4077;43.702;24.896;2023-03-23T11:00:00;1999.90;;;999.90;;
8068;SDS011;4077;43.702;24.896;2023-03-23T11:02:31;1999.90;;;999.90;;
8068;SDS011;4077;43.702;24.896;2023-03-23T11:05:03;1999.90;;;999.90;;
8068;SDS011;4077;43.702;24.896;2023-03-23T11:07:38;1999.90;;;999.90;;
8068;SDS011;4077;43.702;24.896;2023-03-23T11:10:07;1999.90;;;999.90;;
8068;SDS011;4077;43.702;24.896;2023-03-23T11:12:43;1999.90;;;999.90;;
8068;SDS011;4077;43.702;24.896;2023-03-23T11:15:15;1999.90;;;999.90;;
8068;SDS011;4077;43.702;24.896;2023-03-23T11:17:55;1999.90;;;999.90;;
8068;SDS011;4077;43.702;24.896;2023-03-23T11:20:25;1999.90;;;999.90;;
8068;SDS011;4077;43.702;24.896;2023-03-23T11:22:51;1999.90;;;999.90;;
8068;SDS011;4077;43.702;24.896;2023-03-23T11:25:18;1999.90;;;999.90;;
8068;SDS011;4077;43.702;24.896;2023-03-23T11:27:43;1999.90;;;999.90;;
8068;SDS011;4077;43.702;24.896;2023-03-23T11:32:36;1999.90;;;999.90;;
8068;SDS011;4077;43.702;24.896;2023-03-23T11:35:03;1999.90;;;999.90;;
8068;SDS011;4077;43.702;24.896;2023-03-23T11:37:43;1999.90;;;999.90;;
8068;SDS011;4077;43.702;24.896;2023-03-23T11:40:17;1999.90;;;999.90;;
8068;SDS011;4077;43.702;24.896;2023-03-23T11:42:48;1999.90;;;999.90;;
8068;SDS011;4077;43.702;24.896;2023-03-23T11:45:39;1999.90;;;999.90;;
8068;SDS011;4077;43.702;24.896;2023-03-23T11:48:32;1999.90;;;999.90;;
8068;SDS011;4077;43.702;24.896;2023-03-23T11:51:13;1999.90;;;999.90;;
8068;SDS011;4077;43.702;24.896;2023-03-23T11:56:25;1999.90;;;999.90;;
8068;SDS011;4077;43.702;24.896;2023-03-23T11:58:54;1999.90;;;999.90;;
8068;SDS011;4077;43.702;24.896;2023-03-23T12:07:38;1999.90;;;999.90;;
8068;SDS011;4077;43.702;24.896;2023-03-23T12:20:52;1999.90;;;999.90;;
8068;SDS011;4077;43.702;24.896;2023-03-23T12:31:41;1999.90;;;999.90;;
8068;SDS011;4077;43.702;24.896;2023-03-23T12:48:18;1999.90;;;999.90;;
8068;SDS011;4077;43.702;24.896;2023-03-23T13:04:55;1999.90;;;999.90;;
8068;SDS011;4077;43.702;24.896;2023-03-23T13:07:28;1999.90;;;999.90;;
8068;SDS011;4077;43.702;24.896;2023-03-23T13:10:08;1999.90;;;999.90;;
8068;SDS011;4077;43.702;24.896;2023-03-23T13:12:44;1999.90;;;999.90;;
8068;SDS011;4077;43.702;24.896;2023-03-23T13:18:08;1999.90;;;999.90;;
8068;SDS011;4077;43.702;24.896;2023-03-23T13:21:02;1999.90;;;999.90;;
8068;SDS011;4077;43.702;24.896;2023-03-23T13:26:37;1999.90;;;999.90;;
8068;SDS011;4077;43.702;24.896;2023-03-23T13:29:15;1999.90;;;999.90;;
8068;SDS011;4077;43.702;24.896;2023-03-23T13:31:44;1999.90;;;999.90;;
8068;SDS011;4077;43.702;24.896;2023-03-23T13:37:05;1999.90;;;999.90;;
8068;SDS011;4077;43.702;24.896;2023-03-23T13:52:39;1999.90;;;999.90;;
8068;SDS011;4077;43.702;24.896;2023-03-23T14:03:18;1999.90;;;999.90;;
8068;SDS011;4077;43.702;24.896;2023-03-23T14:06:27;1999.90;;;999.90;;
8068;SDS011;4077;43.702;24.896;2023-03-23T14:08:43;1999.90;;;999.90;;
8068;SDS011;4077;43.702;24.896;2023-03-23T14:11:14;1999.90;;;999.90;;
8068;SDS011;4077;43.702;24.896;2023-03-23T14:21:51;1999.90;;;999.90;;
8068;SDS011;4077;43.702;24.896;2023-03-23T14:26:52;1999.90;;;999.90;;
8068;SDS011;4077;43.702;24.896;2023-03-23T14:29:26;1999.90;;;999.90;;
8068;SDS011;4077;43.702;24.896;2023-03-23T14:31:55;1999.90;;;999.90;;
8068;SDS011;4077;43.702;24.896;2023-03-23T14:34:24;1999.90;;;999.90;;
8068;SDS011;4077;43.702;24.896;2023-03-23T14:36:53;1999.90;;;999.90;;
8068;SDS011;4077;43.702;24.896;2023-03-23T14:39:25;1999.90;;;999.90;;
8068;SDS011;4077;43.702;24.896;2023-03-23T14:41:56;1999.90;;;999.90;;
8068;SDS011;4077;43.702;24.896;2023-03-23T14:44:29;1999.90;;;999.90;;
8068;SDS011;4077;43.702;24.896;2023-03-23T14:46:56;1999.90;;;999.90;;
8068;SDS011;4077;43.702;24.896;2023-03-23T14:49:30;1999.90;;;999.90;;
8068;SDS011;4077;43.702;24.896;2023-03-23T14:52:08;1999.90;;;999.90;;
8068;SDS011;4077;43.702;24.896;2023-03-23T14:54:39;1999.90;;;999.90;;
8068;SDS011;4077;43.702;24.896;2023-03-23T14:57:13;1999.90;;;999.90;;
8068;SDS011;4077;43.702;24.896;2023-03-23T14:59:52;1999.90;;;999.90;;
8068;SDS011;4077;43.702;24.896;2023-03-23T15:02:29;1999.90;;;999.90;;
8068;SDS011;4077;43.702;24.896;2023-03-23T15:05:03;1999.90;;;999.90;;
8068;SDS011;4077;43.702;24.896;2023-03-23T15:07:34;1999.90;;;999.90;;
8068;SDS011;4077;43.702;24.896;2023-03-23T15:10:05;1999.90;;;999.90;;
8068;SDS011;4077;43.702;24.896;2023-03-23T15:12:31;1999.90;;;999.90;;
8068;SDS011;4077;43.702;24.896;2023-03-23T15:14:59;1999.90;;;999.90;;
8068;SDS011;4077;43.702;24.896;2023-03-23T15:17:34;1999.90;;;999.90;;
8068;SDS011;4077;43.702;24.896;2023-03-23T15:22:53;1999.90;;;999.90;;
8068;SDS011;4077;43.702;24.896;2023-03-23T15:25:20;1999.90;;;999.90;;
8068;SDS011;4077;43.702;24.896;2023-03-23T15:27:53;1999.90;;;999.90;;
8068;SDS011;4077;43.702;24.896;2023-03-23T15:32:51;1999.90;;;999.90;;
8068;SDS011;4077;43.702;24.896;2023-03-23T15:35:24;1999.90;;;999.90;;
8068;SDS011;4077;43.702;24.896;2023-03-23T15:37:51;1999.90;;;999.90;;
8068;SDS011;4077;43.702;24.896;2023-03-23T15:40:25;1999.90;;;999.90;;
8068;SDS011;4077;43.702;24.896;2023-03-23T15:43:05;1999.90;;;999.90;;
8068;SDS011;4077;43.702;24.896;2023-03-23T15:45:31;1999.90;;;999.90;;
8068;SDS011;4077;43.702;24.896;2023-03-23T15:48:10;1999.90;;;999.90;;
8068;SDS011;4077;43.702;24.896;2023-03-23T15:50:38;1999.90;;;999.90;;
8068;SDS011;4077;43.702;24.896;2023-03-23T15:53:39;1999.90;;;999.90;;
8068;SDS011;4077;43.702;24.896;2023-03-23T15:56:00;1999.90;;;999.90;;
8068;SDS011;4077;43.702;24.896;2023-03-23T15:58:27;1999.90;;;999.90;;
8068;SDS011;4077;43.702;24.896;2023-03-23T16:00:54;1999.90;;;999.90;;
8068;SDS011;4077;43.702;24.896;2023-03-23T16:03:22;1999.90;;;999.90;;
8068;SDS011;4077;43.702;24.896;2023-03-23T16:05:51;1999.90;;;999.90;;
8068;SDS011;4077;43.702;24.896;2023-03-23T16:08:18;1999.90;;;999.90;;
8068;SDS011;4077;43.702;24.896;2023-03-23T16:10:43;1999.90;;;999.90;;
8068;SDS011;4077;43.702;24.896;2023-03-23T16:13:08;1999.90;;;999.90;;
8068;SDS011;4077;43.702;24.896;2023-03-23T16:15:34;1999.90;;;999.90;;
8068;SDS011;4077;43.702;24.896;2023-03-23T16:18:00;1999.90;;;999.90;;
8068;SDS011;4077;43.702;24.896;2023-03-23T16:20:27;1999.90;;;999.90;;
8068;SDS011;4077;43.702;24.896;2023-03-23T16:22:53;1999.90;;;999.90;;
8068;SDS011;4077;43.702;24.896;2023-03-23T16:25:19;1999.90;;;999.90;;
8068;SDS011;4077;43.702;24.896;2023-03-23T16:27:45;1999.90;;;999.90;;
8068;SDS011;4077;43.702;24.896;2023-03-23T16:30:19;1999.90;;;999.90;;
8068;SDS011;4077;43.702;24.896;2023-03-23T16:32:47;1999.90;;;999.90;;
8068;SDS011;4077;43.702;24.896;2023-03-23T16:35:12;1999.90;;;999.90;;
8068;SDS011;4077;43.702;24.896;2023-03-23T16:37:43;1999.90;;;999.90;;
8068;SDS011;4077;43.702;24.896;2023-03-23T16:40:12;1999.90;;;999.90;;
8068;SDS011;4077;43.702;24.896;2023-03-23T16:42:39;1999.90;;;999.90;;
8068;SDS011;4077;43.702;24.896;2023-03-23T16:45:05;1999.90;;;999.90;;
8068;SDS011;4077;43.702;24.896;2023-03-23T16:47:31;1999.90;;;999.90;;
8068;SDS011;4077;43.702;24.896;2023-03-23T16:49:56;1999.90;;;999.90;;